Buckingham, Texas
Current Conditions -  °F | °C
As of 4:47 PM on Monday 22 Dec 2014 (Local Time) from KADS Reporting Station
Overcast Overcast  
Wind Chill: 59°   Ceiling: 18000
Heat Index: 59°   Visibility: 13mi
Dew Point: 45°   Wind: 16mph
Humidity: 59%   Direction: 320°NW
Pressure: 29.63"   Gusts: NA
Location:  32.9743°N, 96.7425°W
Report Text: KADS 222247Z 32014KT 13SM BKN180 OVC250 15/07 A2963
Loading
Personal Weather Stations






























Interactive Weather Map New forecast layout! Learn more

10-Day Weather Forecast

Advertisements
Track Severe Weather on mobile